Time;durP1;ratioP1;P1;durP2;ratioP2;P2;SDS_P1;SDS_P2;PMS_P1;PMS_P2;Temp;Humidity;BMP_temperature;BMP_pressure;BME280_temperature;BME280_humidity;BME280_pressure;Samples;Min_cycle;Max_cycle;Signal;HPM_P1;HPM_P2
2022/03/24 00:02:06;;;;;;;27.77;11.80;;;5.20;99.90;;;;;;1984983;72;21010;-76
2022/03/24 00:04:34;;;;;;;17.82;10.82;;;5.10;99.90;;;;;;1984930;72;21081;-74
2022/03/24 00:07:01;;;;;;;17.35;11.40;;;5.10;99.90;;;;;;1984991;72;20991;-76
2022/03/24 00:09:28;;;;;;;20.15;11.22;;;5.10;99.90;;;;;;1975887;72;21101;-76
2022/03/24 00:11:56;;;;;;;13.85;10.68;;;5.00;99.90;;;;;;1982019;72;21015;-77
2022/03/24 00:14:24;;;;;;;14.53;10.60;;;5.00;99.90;;;;;;1984982;72;21434;-75
2022/03/24 00:16:52;;;;;;;18.15;10.10;;;4.90;99.90;;;;;;1984986;72;21026;-75
2022/03/24 00:19:22;;;;;;;14.23;10.38;;;4.80;99.90;;;;;;1985002;72;20991;-76
2022/03/24 00:21:48;;;;;;;17.65;11.28;;;4.80;99.90;;;;;;1984578;72;21487;-76
2022/03/24 00:24:15;;;;;;;16.57;10.80;;;4.70;99.90;;;;;;1984916;72;21015;-77
2022/03/24 00:26:43;;;;;;;23.20;11.22;;;4.70;99.90;;;;;;1984881;72;21006;-75
2022/03/24 00:29:10;;;;;;;16.60;11.05;;;4.70;99.90;;;;;;1984916;72;21011;-76
2022/03/24 00:31:38;;;;;;;28.87;12.25;;;4.70;99.90;;;;;;1984876;72;21049;-76
2022/03/24 00:34:07;;;;;;;22.17;11.63;;;4.60;99.90;;;;;;1984798;72;21104;-76
2022/03/24 00:36:35;;;;;;;21.65;12.93;;;4.60;99.90;;;;;;1984482;72;21434;-76
2022/03/24 00:39:03;;;;;;;16.17;11.45;;;4.60;99.90;;;;;;1984515;72;21039;-77
2022/03/24 00:41:30;;;;;;;19.90;11.95;;;4.50;99.90;;;;;;1984519;72;21116;-77
2022/03/24 00:43:57;;;;;;;14.03;10.85;;;4.40;99.90;;;;;;1984542;72;21291;-77
2022/03/24 00:46:25;;;;;;;16.20;11.45;;;4.40;99.90;;;;;;1984523;72;21392;-77
2022/03/24 00:48:52;;;;;;;18.85;11.35;;;4.40;99.90;;;;;;1984552;72;21142;-76
2022/03/24 00:51:20;;;;;;;17.87;11.80;;;4.30;99.90;;;;;;1984576;72;21026;-76
2022/03/24 00:53:48;;;;;;;20.23;10.32;;;4.20;99.90;;;;;;1984558;72;21046;-77
2022/03/24 00:56:15;;;;;;;17.87;11.12;;;4.20;99.90;;;;;;1984584;72;21505;-76
2022/03/24 00:58:42;;;;;;;15.43;11.22;;;4.20;99.90;;;;;;1984559;72;21010;-76
2022/03/24 01:01:12;;;;;;;17.77;10.72;;;4.10;99.90;;;;;;1987214;72;21435;-76
2022/03/24 01:03:40;;;;;;;16.62;10.88;;;4.10;99.90;;;;;;1984384;72;21068;-74
2022/03/24 01:06:08;;;;;;;16.85;11.40;;;4.00;99.90;;;;;;1984607;72;21541;-77
2022/03/24 01:08:36;;;;;;;18.87;11.12;;;4.00;99.90;;;;;;1984921;72;20995;-76
2022/03/24 01:11:07;;;;;;;18.00;11.05;;;4.10;99.90;;;;;;1984292;72;20999;-75
2022/03/24 01:13:34;;;;;;;16.70;11.45;;;4.00;99.90;;;;;;1987335;72;21068;-75
2022/03/24 01:16:03;;;;;;;14.80;11.12;;;4.00;99.90;;;;;;1987166;72;21040;-75
2022/03/24 01:18:34;;;;;;;19.85;11.35;;;3.90;99.90;;;;;;1987538;72;21067;-75
2022/03/24 01:21:01;;;;;;;30.68;12.03;;;3.90;99.90;;;;;;1987078;72;21032;-76
2022/03/24 01:23:28;;;;;;;20.27;11.28;;;3.90;99.90;;;;;;1986615;72;21520;-77
2022/03/24 01:25:57;;;;;;;19.07;10.95;;;3.80;99.90;;;;;;1958289;72;21007;-77
2022/03/24 01:28:25;;;;;;;25.95;12.03;;;3.80;99.90;;;;;;1967851;72;21060;-75
2022/03/24 01:30:54;;;;;;;15.70;11.48;;;3.70;99.90;;;;;;1985460;72;21071;-77
2022/03/24 01:33:22;;;;;;;19.17;11.00;;;3.60;99.90;;;;;;1989808;71;21068;-74
2022/03/24 01:36:10;;;;;;;17.55;11.73;;;3.60;99.90;;;;;;1986037;72;21063;-77
2022/03/24 01:38:37;;;;;;;18.70;12.23;;;3.60;99.90;;;;;;1850598;75;20999;-76
2022/03/24 01:41:07;;;;;;;22.17;10.90;;;3.50;99.90;;;;;;1843452;77;21041;-76
2022/03/24 01:43:35;;;;;;;19.48;11.78;;;3.50;99.90;;;;;;1821925;77;21166;-77
2022/03/24 01:46:05;;;;;;;19.45;11.65;;;3.50;99.90;;;;;;1828239;77;21252;-77
2022/03/24 01:48:32;;;;;;;21.42;12.90;;;3.50;99.90;;;;;;1794148;77;21067;-76
2022/03/24 01:51:00;;;;;;;16.52;11.70;;;3.40;99.90;;;;;;1859815;76;21083;-75
2022/03/24 01:53:27;;;;;;;17.37;11.22;;;3.40;99.90;;;;;;1824678;76;21082;-76
2022/03/24 01:55:54;;;;;;;25.40;12.03;;;3.40;99.90;;;;;;1861269;76;21076;-76
2022/03/24 01:58:23;;;;;;;15.68;11.75;;;3.40;99.90;;;;;;1849298;76;21101;-76
2022/03/24 02:00:51;;;;;;;15.15;10.95;;;3.30;99.90;;;;;;1848719;76;21054;-76
2022/03/24 02:03:19;;;;;;;24.55;12.68;;;3.20;99.90;;;;;;1848473;78;21136;-75
2022/03/24 02:05:46;;;;;;;23.60;11.88;;;3.20;99.90;;;;;;1848511;78;21046;-75
2022/03/24 02:08:13;;;;;;;15.03;11.45;;;3.20;99.90;;;;;;1848420;78;21132;-75
2022/03/24 02:10:41;;;;;;;19.00;12.45;;;3.20;99.90;;;;;;1848533;78;21041;-77
2022/03/24 02:13:09;;;;;;;19.23;11.75;;;3.30;99.90;;;;;;1848439;78;21015;-75
2022/03/24 02:15:36;;;;;;;15.32;11.28;;;3.30;99.90;;;;;;1848472;77;21136;-76
2022/03/24 02:18:03;;;;;;;21.23;11.48;;;3.20;99.90;;;;;;1848508;78;21127;-75
2022/03/24 02:20:33;;;;;;;19.35;11.63;;;3.20;99.90;;;;;;1848460;78;21120;-75
2022/03/24 02:23:01;;;;;;;17.48;11.50;;;3.20;99.90;;;;;;1849886;77;21074;-75
2022/03/24 02:25:32;;;;;;;15.85;11.20;;;3.10;99.90;;;;;;1848441;78;21078;-76
2022/03/24 02:27:57;;;;;;;25.15;12.58;;;2.90;99.90;;;;;;1848846;77;21060;-75
2022/03/24 02:30:27;;;;;;;17.00;12.37;;;2.80;99.90;;;;;;1848392;78;21050;-76
2022/03/24 02:32:53;;;;;;;16.55;11.22;;;2.80;99.90;;;;;;1848679;77;21155;-73
2022/03/24 02:35:20;;;;;;;20.08;12.53;;;2.80;99.90;;;;;;1848689;78;21434;-75
2022/03/24 02:37:48;;;;;;;17.87;11.28;;;2.80;99.90;;;;;;1848346;78;21057;-75
2022/03/24 02:40:15;;;;;;;20.68;11.88;;;2.90;99.90;;;;;;1848415;78;21107;-77
2022/03/24 02:42:43;;;;;;;18.62;12.03;;;2.90;99.90;;;;;;1848502;78;21458;-75
2022/03/24 02:45:11;;;;;;;17.55;11.97;;;2.90;99.90;;;;;;1848409;78;21501;-76
2022/03/24 02:47:38;;;;;;;17.05;11.73;;;2.80;99.90;;;;;;1848475;78;21053;-77
2022/03/24 02:50:07;;;;;;;17.75;12.33;;;2.80;99.90;;;;;;1850883;77;21046;-76
2022/03/24 02:52:34;;;;;;;22.27;12.65;;;2.80;99.90;;;;;;1848602;78;21177;-75
2022/03/24 02:55:02;;;;;;;18.95;12.45;;;2.70;99.90;;;;;;1848418;78;21647;-77
2022/03/24 02:57:30;;;;;;;17.50;11.93;;;2.70;99.90;;;;;;1848459;78;21497;-75
2022/03/24 02:59:58;;;;;;;20.00;11.95;;;2.60;99.90;;;;;;1848530;78;21148;-76
2022/03/24 03:02:25;;;;;;;16.27;11.83;;;2.60;99.90;;;;;;1848489;78;21061;-77
2022/03/24 03:04:53;;;;;;;15.60;11.10;;;2.70;99.90;;;;;;1848471;78;21127;-76
2022/03/24 03:07:21;;;;;;;17.02;11.53;;;2.70;99.90;;;;;;1848516;78;21477;-76
2022/03/24 03:09:48;;;;;;;16.97;11.35;;;2.70;99.90;;;;;;1848563;78;21053;-76
2022/03/24 03:12:20;;;;;;;21.65;11.97;;;2.70;99.90;;;;;;1848535;77;21189;-75
2022/03/24 03:14:46;;;;;;;18.65;12.10;;;2.60;99.90;;;;;;1848046;78;21434;-75
2022/03/24 03:17:15;;;;;;;25.68;12.30;;;2.60;99.90;;;;;;1848455;78;21167;-77
2022/03/24 03:19:45;;;;;;;16.48;12.07;;;2.50;99.90;;;;;;1848519;78;21128;-75
2022/03/24 03:22:13;;;;;;;18.55;12.50;;;2.50;99.90;;;;;;1848434;78;21300;-75
2022/03/24 03:24:40;;;;;;;19.50;12.15;;;2.50;99.90;;;;;;1848530;78;21057;-77
2022/03/24 03:27:08;;;;;;;20.72;12.30;;;2.30;99.90;;;;;;1825097;77;21153;-75
2022/03/24 03:29:35;;;;;;;24.25;12.60;;;2.30;99.90;;;;;;1822318;76;21151;-76
2022/03/24 03:32:03;;;;;;;17.77;13.08;;;2.30;99.90;;;;;;1835837;76;21170;-76
2022/03/24 03:34:30;;;;;;;21.60;13.48;;;2.30;99.90;;;;;;1838151;76;21162;-75
2022/03/24 03:36:59;;;;;;;22.93;13.85;;;2.30;99.90;;;;;;1834630;77;21076;-76
2022/03/24 03:39:27;;;;;;;20.13;12.03;;;2.30;99.90;;;;;;1879671;76;21032;-76
2022/03/24 03:41:54;;;;;;;22.30;13.25;;;2.20;99.90;;;;;;1869657;75;21553;-76
2022/03/24 03:44:22;;;;;;;20.60;12.95;;;2.20;99.90;;;;;;1864106;75;21078;-75
2022/03/24 03:46:50;;;;;;;17.87;12.53;;;2.20;99.90;;;;;;1855239;75;21086;-75
2022/03/24 03:49:17;;;;;;;19.00;12.58;;;2.20;99.90;;;;;;1864693;75;21093;-76
2022/03/24 03:51:45;;;;;;;24.70;13.03;;;2.20;99.90;;;;;;1855277;76;21082;-77
2022/03/24 03:54:12;;;;;;;20.15;12.23;;;2.20;99.90;;;;;;1849479;76;21199;-77
2022/03/24 03:56:40;;;;;;;17.52;12.95;;;2.10;99.90;;;;;;1824383;78;21451;-76
2022/03/24 03:59:08;;;;;;;24.43;13.43;;;2.00;99.90;;;;;;1827775;77;21050;-75
2022/03/24 04:01:36;;;;;;;20.62;12.70;;;2.10;99.90;;;;;;1847400;77;21089;-76
2022/03/24 04:04:12;;;;;;;18.10;12.58;;;2.10;99.90;;;;;;1853434;76;21201;-77
2022/03/24 04:06:34;;;;;;;16.65;12.37;;;2.00;99.90;;;;;;1847431;78;21482;-76
2022/03/24 04:09:04;;;;;;;25.48;12.53;;;2.10;99.90;;;;;;1848533;78;21171;-76
2022/03/24 04:11:31;;;;;;;21.23;13.32;;;2.00;99.90;;;;;;1848406;76;21126;-76
2022/03/24 04:13:58;;;;;;;19.70;13.00;;;2.00;99.90;;;;;;1822961;78;21030;-76
2022/03/24 04:16:27;;;;;;;23.42;13.60;;;1.90;99.90;;;;;;1848588;78;21046;-77
2022/03/24 04:18:54;;;;;;;25.82;14.98;;;1.90;99.90;;;;;;1848403;78;21085;-77
2022/03/24 04:21:21;;;;;;;20.60;13.60;;;1.80;99.90;;;;;;1848440;78;21173;-76
2022/03/24 04:23:49;;;;;;;59.58;13.38;;;1.80;99.90;;;;;;1848458;78;21069;-75
2022/03/24 04:26:16;;;;;;;24.77;13.15;;;1.80;99.90;;;;;;1848514;78;21061;-77
2022/03/24 04:28:44;;;;;;;24.72;13.22;;;1.70;99.90;;;;;;1848462;78;21047;-77
2022/03/24 04:31:12;;;;;;;20.68;12.88;;;1.70;99.90;;;;;;1848389;78;21050;-77
2022/03/24 04:33:39;;;;;;;18.90;12.35;;;1.70;99.90;;;;;;1848584;78;21054;-77
2022/03/24 04:36:08;;;;;;;19.95;13.38;;;1.70;99.90;;;;;;1849999;77;21157;-76
2022/03/24 04:38:36;;;;;;;18.85;11.83;;;1.70;99.90;;;;;;1848550;78;21053;-77
2022/03/24 04:41:04;;;;;;;28.05;13.35;;;1.70;99.90;;;;;;1848480;78;21559;-77
2022/03/24 04:43:32;;;;;;;23.60;13.20;;;1.70;99.90;;;;;;1822964;78;21101;-76
2022/03/24 04:45:59;;;;;;;27.02;12.63;;;1.70;99.90;;;;;;1848450;78;21039;-75
2022/03/24 04:48:26;;;;;;;18.98;11.97;;;1.70;99.90;;;;;;1852902;77;21442;-76
2022/03/24 04:50:54;;;;;;;26.73;13.10;;;1.60;99.90;;;;;;1848433;78;21128;-77
2022/03/24 04:53:22;;;;;;;25.35;14.03;;;1.60;99.90;;;;;;1848368;78;21050;-75
2022/03/24 04:55:49;;;;;;;20.08;12.30;;;1.60;99.90;;;;;;1848495;78;21140;-76
2022/03/24 04:58:16;;;;;;;22.22;13.50;;;1.60;99.90;;;;;;1848486;78;21053;-76
2022/03/24 05:00:44;;;;;;;21.45;12.78;;;1.50;99.90;;;;;;1848382;78;21042;-76
2022/03/24 05:03:12;;;;;;;27.02;13.90;;;1.50;99.90;;;;;;1848368;78;21038;-76
2022/03/24 05:05:39;;;;;;;20.20;12.85;;;1.50;99.90;;;;;;1850391;77;21156;-76
2022/03/24 05:08:07;;;;;;;21.55;12.70;;;1.50;99.90;;;;;;1822912;78;21040;-75
2022/03/24 05:10:35;;;;;;;17.07;12.70;;;1.40;99.90;;;;;;1823325;78;21144;-77
2022/03/24 05:13:03;;;;;;;23.35;14.25;;;1.40;99.90;;;;;;1849032;78;21518;-74
2022/03/24 05:15:30;;;;;;;19.57;13.13;;;1.40;99.90;;;;;;1849868;77;21070;-74
2022/03/24 05:18:00;;;;;;;22.22;13.62;;;1.40;99.90;;;;;;1849356;78;21108;-74
2022/03/24 05:20:27;;;;;;;17.50;12.43;;;1.50;99.90;;;;;;1848932;78;21055;-74
2022/03/24 05:22:55;;;;;;;24.23;13.70;;;1.50;99.90;;;;;;1850473;77;21516;-74
2022/03/24 05:25:26;;;;;;;19.65;12.82;;;1.50;99.90;;;;;;1849272;78;21147;-76
2022/03/24 05:27:54;;;;;;;20.48;13.70;;;1.40;99.90;;;;;;1851116;78;21146;-76
2022/03/24 05:30:21;;;;;;;23.67;13.15;;;1.40;99.90;;;;;;1849496;78;21058;-77
2022/03/24 05:32:49;;;;;;;20.37;12.30;;;1.40;99.90;;;;;;1849405;78;21054;-75
2022/03/24 05:35:17;;;;;;;23.52;14.03;;;1.40;99.90;;;;;;1849846;78;21125;-77
2022/03/24 05:37:45;;;;;;;21.20;13.20;;;1.40;99.90;;;;;;1855186;77;21070;-75
2022/03/24 05:40:13;;;;;;;29.70;14.50;;;1.40;99.90;;;;;;1849816;78;21128;-77
2022/03/24 05:42:40;;;;;;;23.50;14.40;;;1.40;99.90;;;;;;1849550;77;21030;-78
2022/03/24 05:45:08;;;;;;;19.12;13.38;;;1.50;99.90;;;;;;1849207;78;21023;-78
2022/03/24 05:47:35;;;;;;;20.00;13.38;;;1.60;99.90;;;;;;1849043;78;21124;-80
2022/03/24 05:50:03;;;;;;;21.23;13.25;;;1.60;99.90;;;;;;1858206;75;21556;-77
2022/03/24 05:52:30;;;;;;;21.95;14.23;;;1.60;99.90;;;;;;1858639;74;21101;-79
2022/03/24 05:54:57;;;;;;;26.23;14.53;;;1.60;99.90;;;;;;1875382;74;21052;-80
2022/03/24 05:57:25;;;;;;;18.87;13.55;;;1.60;99.90;;;;;;1873755;74;21084;-80
2022/03/24 05:59:52;;;;;;;26.25;14.60;;;1.60;99.90;;;;;;1857249;75;21055;-78
2022/03/24 06:02:20;;;;;;;23.95;13.45;;;1.60;99.90;;;;;;1857990;76;21177;-78
2022/03/24 06:04:49;;;;;;;24.92;15.08;;;1.70;99.90;;;;;;1853069;76;21078;-80
2022/03/24 06:07:17;;;;;;;24.67;13.98;;;1.70;99.90;;;;;;1837094;76;21470;-80
2022/03/24 06:09:53;;;;;;;22.25;14.10;;;1.80;99.90;;;;;;1821182;77;21178;-79
2022/03/24 06:12:23;;;;;;;24.85;13.85;;;1.80;99.90;;;;;;1812592;77;21097;-77
2022/03/24 06:14:51;;;;;;;24.70;14.45;;;1.80;99.90;;;;;;1832050;76;21525;-79
2022/03/24 06:17:20;;;;;;;20.08;13.48;;;1.80;99.90;;;;;;1791634;79;21182;-75
2022/03/24 06:19:49;;;;;;;31.55;14.75;;;1.90;99.90;;;;;;1819625;77;21073;-79
2022/03/24 06:22:18;;;;;;;19.55;14.05;;;2.00;99.90;;;;;;1848986;77;21073;-77
2022/03/24 06:24:47;;;;;;;25.95;14.25;;;2.10;99.90;;;;;;1848552;77;21434;-76
2022/03/24 06:27:17;;;;;;;23.75;14.25;;;2.20;99.90;;;;;;1848618;78;21070;-76
2022/03/24 06:29:45;;;;;;;22.37;13.68;;;2.20;99.90;;;;;;1847201;77;21191;-75
2022/03/24 06:32:13;;;;;;;31.07;13.80;;;2.30;99.90;;;;;;1848529;78;21081;-75
2022/03/24 06:34:40;;;;;;;34.40;14.68;;;2.40;99.90;;;;;;1848491;78;21147;-74
2022/03/24 06:37:07;;;;;;;25.08;13.90;;;2.60;99.90;;;;;;1849168;78;21112;-74
2022/03/24 06:39:35;;;;;;;20.60;13.15;;;2.60;99.90;;;;;;1848477;78;21430;-76
2022/03/24 06:42:02;;;;;;;25.68;14.23;;;2.80;99.90;;;;;;1848599;78;21052;-76
2022/03/24 06:44:31;;;;;;;19.05;14.05;;;3.00;99.90;;;;;;1848618;78;21147;-75
2022/03/24 06:46:58;;;;;;;28.45;14.43;;;3.10;99.90;;;;;;1848633;78;21127;-76
2022/03/24 06:49:27;;;;;;;23.22;13.75;;;3.20;99.90;;;;;;1848555;78;21506;-76
2022/03/24 06:51:54;;;;;;;36.48;15.18;;;3.30;99.90;;;;;;1848697;78;21428;-79
2022/03/24 06:54:22;;;;;;;27.55;16.15;;;3.40;99.90;;;;;;1848665;77;21135;-77
2022/03/24 06:56:52;;;;;;;24.12;13.65;;;3.40;99.90;;;;;;1848674;78;21043;-79
2022/03/24 06:59:19;;;;;;;23.98;14.68;;;3.50;99.90;;;;;;1848878;78;21124;-78
2022/03/24 07:01:48;;;;;;;24.55;14.40;;;3.60;99.90;;;;;;1848955;77;21092;-78
2022/03/24 07:04:16;;;;;;;23.22;14.00;;;3.80;99.90;;;;;;1849441;78;21062;-81
2022/03/24 07:06:44;;;;;;;22.07;13.93;;;3.80;99.90;;;;;;1849128;78;21093;-77
2022/03/24 07:09:13;;;;;;;26.75;14.85;;;4.10;99.90;;;;;;1823486;78;21179;-76
2022/03/24 07:11:42;;;;;;;24.67;14.35;;;4.20;99.90;;;;;;1848636;78;21096;-78
2022/03/24 07:14:10;;;;;;;31.55;15.28;;;4.20;99.90;;;;;;1866577;75;21624;-79
2022/03/24 07:16:41;;;;;;;24.93;14.30;;;4.20;99.90;;;;;;1867089;75;21131;-79
2022/03/24 07:19:12;;;;;;;31.02;14.83;;;4.30;99.90;;;;;;1808530;78;21173;-80
2022/03/24 07:21:49;;;;;;;24.25;15.23;;;4.40;99.90;;;;;;1851854;76;21081;-76
2022/03/24 07:24:16;;;;;;;27.27;14.33;;;4.50;99.90;;;;;;1817220;78;21026;-81
2022/03/24 07:26:43;;;;;;;28.80;14.63;;;4.80;99.90;;;;;;1795066;78;21128;-79
2022/03/24 07:29:11;;;;;;;32.93;14.35;;;4.90;99.90;;;;;;1851785;76;21022;-79
2022/03/24 07:31:39;;;;;;;34.73;14.33;;;5.10;99.90;;;;;;1796843;76;21085;-79
2022/03/24 07:34:10;;;;;;;25.45;15.10;;;5.20;99.90;;;;;;1834194;75;21104;-79
2022/03/24 07:36:36;;;;;;;24.82;15.30;;;5.30;99.90;;;;;;1856375;76;21095;-84
2022/03/24 07:39:06;;;;;;;36.28;15.55;;;5.40;99.90;;;;;;1850968;77;21132;-82
2022/03/24 07:41:36;;;;;;;30.08;15.35;;;5.40;99.90;;;;;;1850530;77;21094;-80
2022/03/24 07:44:10;;;;;;;23.22;14.45;;;5.50;99.90;;;;;;1859750;75;21085;-81
2022/03/24 07:46:41;;;;;;;26.33;14.78;;;5.70;99.90;;;;;;1856497;75;21163;-80
2022/03/24 07:49:11;;;;;;;41.95;14.50;;;5.90;99.90;;;;;;1860149;75;21138;-82
2022/03/24 07:51:39;;;;;;;33.42;15.08;;;6.10;99.90;;;;;;1864757;75;21439;-82
2022/03/24 07:54:12;;;;;;;28.62;15.08;;;6.30;99.90;;;;;;1824032;77;21154;-81
2022/03/24 07:56:43;;;;;;;26.50;13.68;;;6.20;99.90;;;;;;1827124;76;21172;-81
2022/03/24 07:59:12;;;;;;;28.00;14.73;;;6.30;99.90;;;;;;1817635;77;21115;-80
2022/03/24 08:01:39;;;;;;;23.62;14.10;;;6.40;99.90;;;;;;1806576;77;21070;-81
2022/03/24 08:04:07;;;;;;;31.40;15.68;;;6.60;99.90;;;;;;1807674;77;21081;-80
2022/03/24 08:06:38;;;;;;;26.85;14.18;;;6.90;99.90;;;;;;1777766;79;21169;-79
2022/03/24 08:09:06;;;;;;;22.15;15.03;;;7.00;99.90;;;;;;1854451;76;21172;-79
2022/03/24 08:11:33;;;;;;;34.78;14.93;;;7.10;99.90;;;;;;1850150;76;21089;-80
2022/03/24 08:14:08;;;;;;;24.60;14.78;;;7.30;99.90;;;;;;1850383;77;21090;-82
2022/03/24 08:16:35;;;;;;;22.10;14.63;;;7.60;99.90;;;;;;1849469;76;21163;-86
2022/03/24 08:19:03;;;;;;;21.23;13.80;;;8.00;99.90;;;;;;1849748;76;21085;-81
2022/03/24 08:21:32;;;;;;;29.32;14.95;;;8.10;99.90;;;;;;1865182;76;21485;-81
2022/03/24 08:24:01;;;;;;;21.45;14.47;;;8.00;99.90;;;;;;1855730;76;21478;-80
2022/03/24 08:26:28;;;;;;;29.63;13.70;;;8.20;99.90;;;;;;1856893;76;21073;-80
2022/03/24 08:28:57;;;;;;;26.42;14.83;;;8.50;99.90;;;;;;1867838;76;21148;-78
2022/03/24 08:31:24;;;;;;;26.50;14.63;;;8.80;99.90;;;;;;1861138;76;21063;-80
2022/03/24 08:33:55;;;;;;;43.05;15.38;;;9.20;99.90;;;;;;1850992;76;21072;-78
2022/03/24 08:36:29;;;;;;;26.12;14.73;;;9.50;99.90;;;;;;1849529;76;21143;-80
2022/03/24 08:38:59;;;;;;;22.15;15.18;;;9.20;99.90;;;;;;1853838;76;21179;-80
2022/03/24 08:41:27;;;;;;;25.00;14.38;;;9.70;99.90;;;;;;1823873;77;21058;-80
2022/03/24 08:43:55;;;;;;;21.50;14.10;;;10.00;99.90;;;;;;1855081;76;21157;-80
2022/03/24 08:46:27;;;;;;;23.60;15.80;;;10.30;99.90;;;;;;1827250;78;21153;-79
2022/03/24 08:48:58;;;;;;;25.60;14.87;;;10.70;99.90;;;;;;1844235;76;21138;-79
2022/03/24 08:51:29;;;;;;;22.35;15.43;;;10.70;99.90;;;;;;1859368;76;21176;-79
2022/03/24 08:53:58;;;;;;;34.25;15.53;;;11.00;99.90;;;;;;1860222;75;21445;-80
2022/03/24 08:56:25;;;;;;;30.60;14.83;;;11.10;99.90;;;;;;1857938;75;21471;-83
2022/03/24 08:58:53;;;;;;;21.55;14.33;;;11.00;99.90;;;;;;1861068;75;21075;-81
2022/03/24 09:01:21;;;;;;;27.10;14.40;;;11.40;99.90;;;;;;1855737;75;21474;-81
2022/03/24 09:03:51;;;;;;;27.15;14.23;;;11.70;99.90;;;;;;1847082;77;21504;-81
2022/03/24 09:06:19;;;;;;;26.97;15.85;;;11.80;99.90;;;;;;1850722;76;21049;-80
2022/03/24 09:08:48;;;;;;;22.37;15.20;;;11.80;99.90;;;;;;1839259;76;21179;-79
2022/03/24 09:11:20;;;;;;;23.05;15.78;;;11.50;99.90;;;;;;1838225;75;21074;-81
2022/03/24 09:13:48;;;;;;;22.62;15.32;;;11.70;99.90;;;;;;1838726;76;21145;-80
2022/03/24 09:16:16;;;;;;;21.73;15.88;;;11.80;99.90;;;;;;1859178;76;21436;-79
2022/03/24 09:18:44;;;;;;;31.10;15.38;;;12.40;99.90;;;;;;1861615;75;21150;-78
2022/03/24 09:21:13;;;;;;;25.48;16.00;;;12.80;99.90;;;;;;1832618;76;21536;-81
2022/03/24 09:23:44;;;;;;;31.07;16.87;;;13.70;99.90;;;;;;1838794;77;21087;-81
2022/03/24 09:26:14;;;;;;;40.90;17.02;;;13.60;99.90;;;;;;1788825;78;21574;-84
2022/03/24 09:28:42;;;;;;;29.12;16.50;;;13.30;99.90;;;;;;1787978;78;21088;-82
2022/03/24 09:31:09;;;;;;;36.85;16.90;;;14.10;99.90;;;;;;1801040;77;21464;-83
2022/03/24 09:33:44;;;;;;;32.30;16.07;;;14.30;99.00;;;;;;1787411;80;21195;-84
2022/03/24 09:36:09;;;;;;;23.92;15.00;;;14.40;97.30;;;;;;1788395;78;21604;-81
2022/03/24 09:38:36;;;;;;;28.45;16.37;;;14.40;97.40;;;;;;1853508;76;21419;-83
2022/03/24 09:41:05;;;;;;;33.02;16.85;;;14.80;95.60;;;;;;1850401;77;21175;-82
2022/03/24 09:43:37;;;;;;;25.48;15.70;;;14.00;96.10;;;;;;1850538;77;21493;-81
2022/03/24 09:46:02;;;;;;;23.20;16.25;;;14.00;97.20;;;;;;1855337;76;21122;-81
2022/03/24 09:48:31;;;;;;;30.25;15.83;;;14.20;96.50;;;;;;1849870;77;21046;-81
2022/03/24 09:50:58;;;;;;;30.08;16.40;;;14.10;96.40;;;;;;1849101;77;21109;-80
2022/03/24 09:53:26;;;;;;;26.35;17.80;;;14.10;95.50;;;;;;1849498;77;21140;-81
2022/03/24 09:55:53;;;;;;;33.90;18.70;;;14.40;94.30;;;;;;1849330;77;21065;-80
2022/03/24 09:58:26;;;;;;;30.97;18.23;;;14.90;93.10;;;;;;1849043;77;21127;-80
2022/03/24 10:00:53;;;;;;;26.07;17.52;;;15.50;92.80;;;;;;1849179;77;21429;-79
2022/03/24 10:03:22;;;;;;;28.87;17.67;;;15.90;91.20;;;;;;1849203;78;21148;-79
2022/03/24 10:06:04;;;;;;;37.60;17.67;;;15.90;89.30;;;;;;1848931;77;21493;-84
2022/03/24 10:08:32;;;;;;;34.35;20.90;;;16.50;87.30;;;;;;1848818;77;21074;-79
2022/03/24 10:11:01;;;;;;;32.58;17.27;;;17.00;85.20;;;;;;1848911;78;21520;-79
2022/03/24 10:13:53;;;;;;;27.15;17.25;;;16.80;83.90;;;;;;1848736;78;21137;-78
2022/03/24 10:16:43;;;;;;;31.12;17.60;;;17.60;84.90;;;;;;1853183;76;21120;-78
2022/03/24 10:19:12;;;;;;;25.55;16.05;;;18.40;80.00;;;;;;1848623;77;21465;-78
2022/03/24 10:21:41;;;;;;;28.07;16.82;;;18.40;77.80;;;;;;1848517;77;21053;-79
2022/03/24 10:24:15;;;;;;;30.90;18.87;;;18.00;76.70;;;;;;1849476;77;21116;-78
2022/03/24 10:26:51;;;;;;;27.60;17.42;;;18.00;78.60;;;;;;1826543;76;21074;-78
2022/03/24 10:29:21;;;;;;;31.07;17.12;;;18.70;73.90;;;;;;1846165;76;21082;-79
2022/03/24 10:31:55;;;;;;;32.45;17.60;;;19.20;71.00;;;;;;1849137;77;21057;-79
2022/03/24 10:34:30;;;;;;;31.00;17.73;;;18.60;72.50;;;;;;1848764;76;21049;-80
2022/03/24 10:36:58;;;;;;;29.23;16.90;;;19.40;70.60;;;;;;1792841;78;21570;-78
2022/03/24 10:39:26;;;;;;;31.77;17.77;;;19.10;69.50;;;;;;1809420;79;21477;-78
2022/03/24 10:41:54;;;;;;;27.48;17.62;;;17.60;72.50;;;;;;1792648;77;21101;-78
2022/03/24 10:44:21;;;;;;;30.17;17.45;;;17.40;75.00;;;;;;1844274;76;21474;-79
2022/03/24 10:46:49;;;;;;;26.82;16.73;;;18.00;75.20;;;;;;1880269;76;21082;-78
2022/03/24 10:49:20;;;;;;;29.52;17.20;;;18.60;70.80;;;;;;1850656;76;21112;-78
2022/03/24 10:51:48;;;;;;;28.05;16.73;;;19.10;69.80;;;;;;1826682;77;21490;-79
2022/03/24 10:54:47;;;;;;;27.35;17.25;;;19.40;68.90;;;;;;1850188;77;21124;-80
2022/03/24 10:57:19;;;;;;;29.67;17.32;;;18.80;69.30;;;;;;1828072;77;21149;-80
2022/03/24 10:59:47;;;;;;;32.05;16.90;;;19.00;68.50;;;;;;1787272;78;21470;-80
2022/03/24 11:02:17;;;;;;;28.83;17.57;;;19.20;68.00;;;;;;1821928;77;21083;-78
2022/03/24 11:04:45;;;;;;;28.10;16.70;;;18.40;68.80;;;;;;1789274;78;21135;-80
2022/03/24 11:07:13;;;;;;;38.00;17.30;;;19.10;67.70;;;;;;1848931;77;21148;-79
2022/03/24 11:09:40;;;;;;;26.20;16.87;;;18.90;70.70;;;;;;1859109;75;21051;-79
2022/03/24 11:12:31;;;;;;;31.95;17.73;;;19.90;67.80;;;;;;1892621;75;21079;-78
2022/03/24 11:14:59;;;;;;;;;;;20.20;67.90;;;;;;1854008;75;21097;-74
2022/03/24 11:17:28;;;;;;;72.10;21.15;;;20.60;65.60;;;;;;1854195;75;20144;-78
2022/03/24 11:20:10;;;;;;;43.45;19.55;;;20.30;65.30;;;;;;1835127;76;21087;-78
2022/03/24 11:22:57;;;;;;;29.45;18.67;;;19.90;67.30;;;;;;1867345;74;21549;-76
2022/03/24 11:25:26;;;;;;;48.92;20.02;;;19.40;66.70;;;;;;1859555;76;21085;-78
2022/03/24 11:27:54;;;;;;;34.13;18.77;;;19.90;66.50;;;;;;1817330;79;21430;-78
2022/03/24 11:30:22;;;;;;;29.63;18.20;;;19.70;65.20;;;;;;1857689;76;21087;-78
2022/03/24 11:32:50;;;;;;;27.85;18.15;;;20.10;63.50;;;;;;1859653;76;21157;-77
2022/03/24 11:35:18;;;;;;;31.80;17.15;;;20.70;62.10;;;;;;1855085;76;21157;-77
2022/03/24 11:37:46;;;;;;;38.58;18.37;;;21.70;59.90;;;;;;1857929;76;21134;-79
2022/03/24 11:40:27;;;;;;;31.93;17.73;;;21.60;57.00;;;;;;1843603;76;21078;-77
2022/03/24 11:42:59;;;;;;;24.57;16.73;;;20.90;57.60;;;;;;1847123;76;21055;-77
2022/03/24 11:45:29;;;;;;;32.35;16.55;;;21.40;55.00;;;;;;1853236;75;21143;-79
2022/03/24 11:48:05;;;;;;;22.62;14.85;;;21.70;53.70;;;;;;1856865;77;21167;-79
2022/03/24 11:50:45;;;;;;;23.38;13.58;;;22.30;51.50;;;;;;1849346;77;21155;-77
2022/03/24 11:53:18;;;;;;;16.40;11.73;;;22.60;50.40;;;;;;1852315;77;21488;-77
2022/03/24 11:56:05;;;;;;;20.50;11.25;;;23.20;46.20;;;;;;1852345;77;21136;-77
2022/03/24 11:58:31;;;;;;;18.15;10.68;;;22.50;45.10;;;;;;1844731;76;21154;-77
2022/03/24 12:01:01;;;;;;;16.50;10.85;;;22.90;44.80;;;;;;1839415;77;21508;-77
2022/03/24 12:03:42;;;;;;;14.83;10.38;;;23.40;43.40;;;;;;1812641;77;21097;-76
2022/03/24 12:06:10;;;;;;;16.57;10.03;;;23.40;42.40;;;;;;1828068;76;21065;-79
2022/03/24 12:08:45;;;;;;;13.55;10.50;;;23.60;41.40;;;;;;1859179;76;21018;-75
2022/03/24 12:11:34;;;;;;;12.70;10.03;;;23.10;41.80;;;;;;1869487;74;21083;-76
2022/03/24 12:14:04;;;;;;;13.15;9.78;;;23.10;41.60;;;;;;1818201;78;21143;-79
2022/03/24 12:16:31;;;;;;;;;;;23.10;41.10;;;;;;1879306;76;21098;-79
2022/03/24 12:19:00;;;;;;;13.20;9.40;;;23.50;40.90;;;;;;1888302;74;20137;-76
2022/03/24 12:21:30;;;;;;;14.03;9.53;;;24.30;40.00;;;;;;1854335;75;21148;-78
2022/03/24 12:24:09;;;;;;;14.28;9.95;;;24.80;38.50;;;;;;1839210;76;21160;-77
2022/03/24 12:26:42;;;;;;;11.87;8.50;;;24.90;38.10;;;;;;1864566;75;21179;-77
2022/03/24 12:29:23;;;;;;;10.72;8.63;;;24.90;36.10;;;;;;1857212;75;21457;-77
2022/03/24 12:32:09;;;;;;;12.73;9.00;;;24.60;36.60;;;;;;1871190;74;21077;-79
2022/03/24 12:34:45;;;;;;;15.50;9.35;;;24.70;36.80;;;;;;1860767;77;21081;-77
2022/03/24 12:37:29;;;;;;;13.88;9.15;;;24.90;37.30;;;;;;1850168;77;21418;-78
2022/03/24 12:40:11;;;;;;;14.55;8.95;;;24.60;35.40;;;;;;1831225;76;21169;-76
2022/03/24 12:42:45;;;;;;;13.48;8.40;;;24.40;36.70;;;;;;1833210;77;21452;-77
2022/03/24 12:45:27;;;;;;;11.57;8.35;;;25.20;35.20;;;;;;1837369;77;21101;-78
2022/03/24 12:47:59;;;;;;;13.90;8.10;;;25.30;34.90;;;;;;1827101;76;21231;-76